W. O. Watson — WDE2805 — position and weather

sailwx.info

Track history (hours):
 
Tides and Currents Weather Stations Pressure Air Temp Water Temp Dewpoint Dewpoint Depression Visibility Wind Speed Wind Dir Waves Ship Positions

W. O. Watson

Owner: Martin Operating Partnership,LP, Vidor, TX. More information available from US FCC via Universal Licensing System and Coast Guard Vessel Documentation Center.

Last reported at 2015-Mar-31 07:16 UTC. Time now 2015-Mar-31 08:25 UTC.
Position N 29°29' W 094°52'.

Length 32 m; draft 2.8 m.

MMSI: 367329860.

Date/timePositionNaut miles runAvg speedWind from/ knotsBaromVisibWave heightAir tempDewpointWater temp
2015-Mar-31 07:16N 29°29' W 094°52'5 7.5
2015-Mar-31 06:33N 29°33' W 094°55'8 7.7
2015-Mar-31 05:33N 29°40' W 094°59'7 6.4
2015-Mar-31 04:31N 29°45' W 095°04'2 2.6
2015-Mar-31 03:33N 29°47' W 095°04'2 0.5
2015-Mar-30 23:33N 29°46' W 095°05'1 0.9
2015-Mar-30 22:33N 29°46' W 095°06'0 0.0
2015-Mar-30 21:33N 29°46' W 095°06'0 0.0
2015-Mar-30 20:33N 29°46' W 095°06'0 0.0
2015-Mar-30 19:33N 29°46' W 095°06'0 0.3
2015-Mar-30 18:32N 29°46' W 095°06'2 1.5
2015-Mar-30 17:31N 29°47' W 095°05'2 2.1
2015-Mar-30 16:32N 29°46' W 095°07'1 0.3
2015-Mar-30 14:33N 29°46' W 095°06'0 0.1
2015-Mar-30 13:16N 29°46' W 095°06'0 0.0
2015-Mar-30 12:13N 29°46' W 095°06'0 0.0
2015-Mar-30 11:32N 29°46' W 095°06'0 0.0
2015-Mar-30 02:33N 29°46' W 095°06'0 0.0
2015-Mar-30 01:32N 29°46' W 095°06'1 0.9
2015-Mar-30 00:34N 29°46' W 095°05'1 1.1
2015-Mar-29 23:09N 29°46' W 095°07'1 1.9
2015-Mar-29 22:33N 29°45' W 095°06'3 2.7
2015-Mar-29 21:33N 29°47' W 095°04'2 2.3
2015-Mar-29 20:31N 29°46' W 095°06'0 0.2
2015-Mar-29 19:33N 29°46' W 095°06'0 0.0
2015-Mar-29 18:33N 29°46' W 095°06'0 0.0
2015-Mar-29 17:33N 29°46' W 095°06'0 0.0
2015-Mar-29 16:33N 29°46' W 095°06'0 0.0
2015-Mar-29 15:33N 29°46' W 095°06'0 0.0
2015-Mar-29 14:33N 29°46' W 095°06'0 0.0
2015-Mar-29 13:33N 29°46' W 095°06'0 0.0
2015-Mar-29 12:33N 29°46' W 095°06'0 0.0
2015-Mar-29 11:33N 29°46' W 095°06'0 0.0
2015-Mar-29 10:33N 29°46' W 095°06'0 0.0
2015-Mar-29 09:33N 29°46' W 095°06'0 0.0
2015-Mar-29 08:33N 29°46' W 095°06'0 0.0
2015-Mar-29 07:33N 29°46' W 095°06'0 0.0
2015-Mar-29 06:33N 29°46' W 095°06'0 0.0
2015-Mar-29 05:33N 29°46' W 095°06'0 0.0
2015-Mar-29 04:33N 29°46' W 095°06'0 0.0
2015-Mar-29 03:33N 29°46' W 095°06'0 0.0
2015-Mar-29 02:33N 29°46' W 095°06'0 0.0
2015-Mar-29 01:33N 29°46' W 095°06'0 0.0
2015-Mar-29 00:33N 29°46' W 095°06'0 0.0
2015-Mar-28 23:33N 29°46' W 095°06'0 0.0
2015-Mar-28 22:33N 29°46' W 095°06'0 0.0
2015-Mar-28 21:33N 29°46' W 095°06'0 0.0
2015-Mar-28 20:22N 29°46' W 095°06'0 0.0
2015-Mar-28 19:33N 29°46' W 095°06'1 1.2
2015-Mar-28 18:33N 29°46' W 095°05'2 1.7
2015-Mar-28 17:33N 29°47' W 095°04'1 0.4
2015-Mar-28 15:32N 29°47' W 095°04'3 0.1
2015-Mar-27 21:33N 29°46' W 095°07'0 0.1
2015-Mar-27 20:33N 29°46' W 095°07'0 0.3
2015-Mar-27 19:33N 29°46' W 095°07'2 2.2
2015-Mar-27 18:34N 29°47' W 095°05'1 1.2
2015-Mar-27 17:33N 29°46' W 095°04'5 5.4
2015-Mar-27 16:33N 29°42' W 094°60'7 7.3
2015-Mar-27 15:33N 29°35' W 094°56'7 7.1
2015-Mar-27 14:33N 29°29' W 094°52'7 7.3
2015-Mar-27 13:33N 29°23' W 094°48'  
2015-Mar-22 21:30N 29°32' W 090°50'5 5.3
2015-Mar-22 20:33N 29°34' W 090°45'3 3.4
2015-Mar-22 19:33N 29°37' W 090°42'2 1.9
2015-Mar-22 18:33N 29°36' W 090°40'4 4.1
2015-Mar-22 17:33N 29°35' W 090°36'5 5.3
2015-Mar-22 16:33N 29°34' W 090°30'6 4.7
2015-Mar-22 15:12N 29°35' W 090°23'22 3.2
2015-Mar-22 08:32N 29°49' W 090°04'3 3.0
2015-Mar-22 07:30N 29°51' W 090°01'3 3.1
2015-Mar-22 06:29N 29°54' W 089°60'2 1.3
2015-Mar-22 05:12N 29°55' W 089°58'1 0.8
2015-Mar-22 04:32N 29°55' W 089°58'1 0.7
2015-Mar-22 03:28N 29°55' W 089°57'0 0.0
2015-Mar-22 02:31N 29°55' W 089°57'0 0.0
2015-Mar-22 01:32N 29°55' W 089°57'0 0.0
2015-Mar-22 00:33N 29°55' W 089°57'  
Track history (hours):
 
Tides and Currents Weather Stations Pressure Air Temp Water Temp Dewpoint Dewpoint Depression Visibility Wind Speed Wind Dir Waves Ship Positions

W. O. Watson

Owner: Martin Operating Partnership,LP, Vidor, TX. More information available from US FCC via Universal Licensing System and Coast Guard Vessel Documentation Center.

Last reported at 2015-Mar-31 07:16 UTC. Time now 2015-Mar-31 08:25 UTC.
Position N 29°29' W 094°52'.

Length 32 m; draft 2.8 m.

MMSI: 367329860.

Date/timePositionNaut miles runAvg speedWind from/ knotsBaromVisibWave heightAir tempDewpointWater temp
2015-Mar-31 07:16N 29°29' W 094°52'5 7.5
2015-Mar-31 06:33N 29°33' W 094°55'8 7.7
2015-Mar-31 05:33N 29°40' W 094°59'7 6.4
2015-Mar-31 04:31N 29°45' W 095°04'2 2.6
2015-Mar-31 03:33N 29°47' W 095°04'2 0.5
2015-Mar-30 23:33N 29°46' W 095°05'1 0.9
2015-Mar-30 22:33N 29°46' W 095°06'0 0.0
2015-Mar-30 21:33N 29°46' W 095°06'0 0.0
2015-Mar-30 20:33N 29°46' W 095°06'0 0.0
2015-Mar-30 19:33N 29°46' W 095°06'0 0.3
2015-Mar-30 18:32N 29°46' W 095°06'2 1.5
2015-Mar-30 17:31N 29°47' W 095°05'2 2.1
2015-Mar-30 16:32N 29°46' W 095°07'1 0.3
2015-Mar-30 14:33N 29°46' W 095°06'0 0.1
2015-Mar-30 13:16N 29°46' W 095°06'0 0.0
2015-Mar-30 12:13N 29°46' W 095°06'0 0.0
2015-Mar-30 11:32N 29°46' W 095°06'0 0.0
2015-Mar-30 02:33N 29°46' W 095°06'0 0.0
2015-Mar-30 01:32N 29°46' W 095°06'1 0.9
2015-Mar-30 00:34N 29°46' W 095°05'1 1.1
2015-Mar-29 23:09N 29°46' W 095°07'1 1.9
2015-Mar-29 22:33N 29°45' W 095°06'3 2.7
2015-Mar-29 21:33N 29°47' W 095°04'2 2.3
2015-Mar-29 20:31N 29°46' W 095°06'0 0.2
2015-Mar-29 19:33N 29°46' W 095°06'0 0.0
2015-Mar-29 18:33N 29°46' W 095°06'0 0.0
2015-Mar-29 17:33N 29°46' W 095°06'0 0.0
2015-Mar-29 16:33N 29°46' W 095°06'0 0.0
2015-Mar-29 15:33N 29°46' W 095°06'0 0.0
2015-Mar-29 14:33N 29°46' W 095°06'0 0.0
2015-Mar-29 13:33N 29°46' W 095°06'0 0.0
2015-Mar-29 12:33N 29°46' W 095°06'0 0.0
2015-Mar-29 11:33N 29°46' W 095°06'0 0.0
2015-Mar-29 10:33N 29°46' W 095°06'0 0.0
2015-Mar-29 09:33N 29°46' W 095°06'0 0.0
2015-Mar-29 08:33N 29°46' W 095°06'0 0.0
2015-Mar-29 07:33N 29°46' W 095°06'0 0.0
2015-Mar-29 06:33N 29°46' W 095°06'0 0.0
2015-Mar-29 05:33N 29°46' W 095°06'0 0.0
2015-Mar-29 04:33N 29°46' W 095°06'0 0.0
2015-Mar-29 03:33N 29°46' W 095°06'0 0.0
2015-Mar-29 02:33N 29°46' W 095°06'0 0.0
2015-Mar-29 01:33N 29°46' W 095°06'0 0.0
2015-Mar-29 00:33N 29°46' W 095°06'0 0.0
2015-Mar-28 23:33N 29°46' W 095°06'0 0.0
2015-Mar-28 22:33N 29°46' W 095°06'0 0.0
2015-Mar-28 21:33N 29°46' W 095°06'0 0.0
2015-Mar-28 20:22N 29°46' W 095°06'0 0.0
2015-Mar-28 19:33N 29°46' W 095°06'1 1.2
2015-Mar-28 18:33N 29°46' W 095°05'2 1.7
2015-Mar-28 17:33N 29°47' W 095°04'1 0.4
2015-Mar-28 15:32N 29°47' W 095°04'3 0.1
2015-Mar-27 21:33N 29°46' W 095°07'0 0.1
2015-Mar-27 20:33N 29°46' W 095°07'0 0.3
2015-Mar-27 19:33N 29°46' W 095°07'2 2.2
2015-Mar-27 18:34N 29°47' W 095°05'1 1.2
2015-Mar-27 17:33N 29°46' W 095°04'5 5.4
2015-Mar-27 16:33N 29°42' W 094°60'7 7.3
2015-Mar-27 15:33N 29°35' W 094°56'7 7.1
2015-Mar-27 14:33N 29°29' W 094°52'7 7.3
2015-Mar-27 13:33N 29°23' W 094°48'  
2015-Mar-22 21:30N 29°32' W 090°50'5 5.3
2015-Mar-22 20:33N 29°34' W 090°45'3 3.4
2015-Mar-22 19:33N 29°37' W 090°42'2 1.9
2015-Mar-22 18:33N 29°36' W 090°40'4 4.1
2015-Mar-22 17:33N 29°35' W 090°36'5 5.3
2015-Mar-22 16:33N 29°34' W 090°30'6 4.7
2015-Mar-22 15:12N 29°35' W 090°23'22 3.2
2015-Mar-22 08:32N 29°49' W 090°04'3 3.0
2015-Mar-22 07:30N 29°51' W 090°01'3 3.1
2015-Mar-22 06:29N 29°54' W 089°60'2 1.3
2015-Mar-22 05:12N 29°55' W 089°58'1 0.8
2015-Mar-22 04:32N 29°55' W 089°58'1 0.7
2015-Mar-22 03:28N 29°55' W 089°57'0 0.0
2015-Mar-22 02:31N 29°55' W 089°57'0 0.0
2015-Mar-22 01:32N 29°55' W 089°57'0 0.0
2015-Mar-22 00:33N 29°55' W 089°57'  

Dump ship's entire track history